Time,TemperatureF,DewpointF,PressureIn,WindDirection,WindDirectionDegrees,WindSpeedMPH,WindSpeedGustMPH,Humidity,HourlyPrecipIn,Conditions,Clouds,dailyrainin,SoftwareType,DateUTC
2013-01-29 00:03:00,31.8,31.0,29.68,SE,132,0.0,0.0,97,0.00,,---,0.00,VWS V14.01,2013-01-29 06:03:00,
2013-01-29 00:08:00,31.8,31.0,29.68,SE,133,0.0,0.0,97,0.00,,---,0.00,VWS V14.01,2013-01-29 06:08:00,
2013-01-29 00:13:00,31.8,31.0,29.68,SE,133,0.0,0.0,97,0.00,,---,0.00,VWS V14.01,2013-01-29 06:13:00,
2013-01-29 00:18:00,31.8,31.0,29.68,SE,132,0.0,0.0,97,0.00,,---,0.00,VWS V14.01,2013-01-29 06:18:00,
2013-01-29 00:23:00,31.8,31.0,29.67,SE,133,0.0,0.0,97,0.00,,---,0.00,VWS V14.01,2013-01-29 06:23:00,
2013-01-29 00:28:00,31.8,31.0,29.67,SE,133,0.0,0.0,97,0.00,,---,0.00,VWS V14.01,2013-01-29 06:28:00,
2013-01-29 00:33:00,31.9,31.1,29.67,SE,132,0.0,0.0,97,0.00,,---,0.00,VWS V14.01,2013-01-29 06:33:00,
2013-01-29 00:38:00,31.9,31.1,29.66,SE,133,0.0,0.0,97,0.00,,---,0.00,VWS V14.01,2013-01-29 06:38:00,
2013-01-29 00:43:00,31.9,31.1,29.66,SE,132,0.0,0.0,97,0.00,,---,0.00,VWS V14.01,2013-01-29 06:43:00,
2013-01-29 00:48:00,31.9,31.1,29.66,SE,132,0.0,0.0,97,0.00,,---,0.00,VWS V14.01,2013-01-29 06:48:00,
2013-01-29 00:53:00,31.9,31.1,29.65,SE,133,0.0,0.0,97,0.00,,---,0.00,VWS V14.01,2013-01-29 06:53:00,
2013-01-29 00:58:00,31.9,31.1,29.64,SE,133,0.0,0.0,97,0.00,,---,0.00,VWS V14.01,2013-01-29 06:58:00,
2013-01-29 01:03:00,31.9,31.1,29.64,SE,133,0.0,0.0,97,0.00,,---,0.00,VWS V14.01,2013-01-29 07:03:00,
2013-01-29 01:08:00,31.9,31.1,29.64,SE,134,0.0,0.0,97,0.00,,---,0.00,VWS V14.01,2013-01-29 07:08:00,
2013-01-29 01:13:00,31.9,31.1,29.64,SE,134,0.0,0.0,97,0.00,,---,0.00,VWS V14.01,2013-01-29 07:13:00,
2013-01-29 01:18:00,32.0,31.2,29.64,SE,134,0.0,0.0,97,0.00,,---,0.00,VWS V14.01,2013-01-29 07:18:00,
2013-01-29 01:23:00,32.0,31.2,29.64,SE,134,0.0,0.0,97,0.01,,---,0.01,VWS V14.01,2013-01-29 07:23:00,
2013-01-29 01:28:00,32.0,31.2,29.64,SE,134,0.0,0.0,97,0.01,,---,0.01,VWS V14.01,2013-01-29 07:28:00,
2013-01-29 01:33:00,32.0,31.2,29.64,SE,134,0.0,0.0,97,0.01,,---,0.01,VWS V14.01,2013-01-29 07:33:00,
2013-01-29 01:38:00,32.1,31.4,29.63,SE,133,0.0,0.0,97,0.01,,---,0.01,VWS V14.01,2013-01-29 07:38:00,
2013-01-29 01:43:00,32.0,31.2,29.62,SE,132,0.0,0.0,97,0.01,,---,0.01,VWS V14.01,2013-01-29 07:43:00,
2013-01-29 01:48:00,32.0,31.2,29.62,SE,133,0.0,0.0,97,0.01,,---,0.01,VWS V14.01,2013-01-29 07:48:00,
2013-01-29 01:53:00,32.0,31.2,29.62,SE,133,0.0,0.0,97,0.01,,---,0.01,VWS V14.01,2013-01-29 07:53:00,
2013-01-29 01:58:00,32.1,31.4,29.62,SE,132,0.0,0.0,97,0.01,,---,0.01,VWS V14.01,2013-01-29 07:58:00,
2013-01-29 02:03:00,32.1,31.4,29.62,SE,133,0.0,0.0,97,0.01,,---,0.01,VWS V14.01,2013-01-29 08:03:00,
2013-01-29 02:08:00,32.1,31.4,29.62,SE,133,0.0,0.0,97,0.01,,---,0.01,VWS V14.01,2013-01-29 08:08:00,
2013-01-29 02:13:00,32.1,31.4,29.62,SE,133,0.0,0.0,97,0.01,,---,0.01,VWS V14.01,2013-01-29 08:13:00,
2013-01-29 02:18:00,32.1,31.4,29.62,SE,132,0.0,0.0,97,0.01,,---,0.01,VWS V14.01,2013-01-29 08:18:00,
2013-01-29 02:23:00,32.1,31.4,29.62,SE,133,0.0,0.0,97,0.01,,---,0.01,VWS V14.01,2013-01-29 08:23:00,
2013-01-29 02:28:00,32.1,31.4,29.62,SE,133,0.0,0.0,97,0.00,,---,0.01,VWS V14.01,2013-01-29 08:28:00,
2013-01-29 02:33:00,32.1,31.4,29.61,SE,132,0.0,0.0,97,0.00,,---,0.01,VWS V14.01,2013-01-29 08:33:00,
2013-01-29 02:38:00,32.2,31.5,29.61,SE,133,0.0,0.0,97,0.00,,---,0.01,VWS V14.01,2013-01-29 08:38:00,
2013-01-29 02:43:00,32.2,31.5,29.61,SE,133,0.0,0.0,97,0.00,,---,0.01,VWS V14.01,2013-01-29 08:43:00,
2013-01-29 02:48:00,32.1,31.4,29.61,SE,133,0.0,0.0,97,0.00,,---,0.01,VWS V14.01,2013-01-29 08:48:00,
2013-01-29 02:53:00,32.1,31.4,29.61,SE,134,0.0,0.0,97,0.01,,---,0.02,VWS V14.01,2013-01-29 08:53:00,
2013-01-29 02:58:00,32.1,31.4,29.61,SE,134,0.0,0.0,97,0.01,,---,0.02,VWS V14.01,2013-01-29 08:58:00,
2013-01-29 03:03:00,32.2,31.5,29.62,SE,142,0.0,0.0,97,0.01,,---,0.02,VWS V14.01,2013-01-29 09:03:00,
2013-01-29 03:08:00,32.2,31.5,29.61,SE,142,0.0,0.0,97,0.01,,---,0.02,VWS V14.01,2013-01-29 09:08:00,
2013-01-29 03:13:00,32.2,31.5,29.62,SE,142,0.0,0.0,97,0.01,,---,0.02,VWS V14.01,2013-01-29 09:13:00,
2013-01-29 03:18:00,32.2,31.5,29.62,SE,142,0.0,0.0,97,0.01,,---,0.02,VWS V14.01,2013-01-29 09:18:00,
2013-01-29 03:23:00,32.2,31.5,29.62,SE,142,0.0,0.0,97,0.01,,---,0.02,VWS V14.01,2013-01-29 09:23:00,
2013-01-29 03:28:00,32.2,31.5,29.62,SE,142,0.0,0.0,97,0.01,,---,0.02,VWS V14.01,2013-01-29 09:28:00,
2013-01-29 03:33:00,32.2,31.5,29.62,West,278,0.0,1.0,97,0.01,,---,0.02,VWS V14.01,2013-01-29 09:33:00,
2013-01-29 03:37:00,32.3,31.5,29.62,West,278,0.0,2.0,97,0.01,,---,0.02,VWS V14.01,2013-01-29 09:37:00,
2013-01-29 03:42:00,32.3,31.5,29.62,WNW,287,0.0,1.0,97,0.01,,---,0.02,VWS V14.01,2013-01-29 09:42:00,
2013-01-29 03:47:00,32.2,31.5,29.62,WNW,288,0.0,1.0,97,0.01,,---,0.02,VWS V14.01,2013-01-29 09:47:00,
2013-01-29 03:52:00,32.2,31.5,29.61,NW,314,1.0,3.0,97,0.01,,---,0.02,VWS V14.01,2013-01-29 09:52:00,
2013-01-29 03:57:00,32.3,31.5,29.61,NW,311,0.0,0.0,97,0.00,,---,0.02,VWS V14.01,2013-01-29 09:57:00,
2013-01-29 04:02:00,32.2,31.5,29.60,NW,311,0.0,1.0,97,0.00,,---,0.02,VWS V14.01,2013-01-29 10:02:00,
2013-01-29 04:07:00,32.2,31.5,29.61,NW,312,0.0,1.0,97,0.00,,---,0.02,VWS V14.01,2013-01-29 10:07:00,
2013-01-29 04:12:00,32.2,31.5,29.61,NW,311,0.0,0.0,97,0.00,,---,0.02,VWS V14.01,2013-01-29 10:12:00,
2013-01-29 04:17:00,32.2,31.5,29.61,NW,311,1.0,1.0,97,0.00,,---,0.02,VWS V14.01,2013-01-29 10:17:00,
2013-01-29 04:22:00,32.2,31.5,29.61,NW,311,1.0,1.0,97,0.00,,---,0.02,VWS V14.01,2013-01-29 10:22:00,
2013-01-29 04:27:00,32.2,31.5,29.61,NW,312,0.0,0.0,97,0.00,,---,0.02,VWS V14.01,2013-01-29 10:27:00,
2013-01-29 04:32:00,32.1,31.4,29.60,NW,312,0.0,0.0,97,0.00,,---,0.02,VWS V14.01,2013-01-29 10:32:00,
2013-01-29 04:37:00,32.1,31.4,29.60,NW,312,1.0,1.0,97,0.00,,---,0.02,VWS V14.01,2013-01-29 10:37:00,
2013-01-29 04:42:00,32.1,31.4,29.60,NW,311,1.0,1.0,97,0.00,,---,0.02,VWS V14.01,2013-01-29 10:42:00,
2013-01-29 04:47:00,32.1,31.4,29.60,NW,306,1.0,2.0,97,0.00,,---,0.02,VWS V14.01,2013-01-29 10:47:00,
2013-01-29 04:52:00,32.1,31.4,29.60,NW,305,0.0,2.0,97,0.00,,---,0.02,VWS V14.01,2013-01-29 10:52:00,
2013-01-29 04:57:00,32.1,31.4,29.61,WSW,257,1.0,2.0,97,0.00,,---,0.02,VWS V14.01,2013-01-29 10:57:00,
2013-01-29 05:02:00,32.1,31.4,29.60,West,260,2.0,2.0,97,0.00,,---,0.02,VWS V14.01,2013-01-29 11:02:00,
2013-01-29 05:07:00,32.0,31.2,29.61,WNW,299,1.0,3.0,97,0.00,,---,0.02,VWS V14.01,2013-01-29 11:07:00,
2013-01-29 05:12:00,32.0,31.2,29.60,WNW,293,1.0,1.0,97,0.00,,---,0.02,VWS V14.01,2013-01-29 11:12:00,
2013-01-29 05:17:00,32.0,31.2,29.60,NW,320,1.0,3.0,97,0.00,,---,0.02,VWS V14.01,2013-01-29 11:17:00,
2013-01-29 05:22:00,32.0,31.2,29.60,NW,313,1.0,3.0,97,0.00,,---,0.02,VWS V14.01,2013-01-29 11:22:00,
2013-01-29 05:27:00,32.0,31.2,29.61,West,270,1.0,1.0,97,0.00,,---,0.02,VWS V14.01,2013-01-29 11:27:00,
2013-01-29 05:32:00,32.0,31.2,29.61,WNW,289,2.0,2.0,97,0.01,,---,0.03,VWS V14.01,2013-01-29 11:32:00,
2013-01-29 05:37:00,32.0,31.2,29.61,WNW,293,0.0,3.0,97,0.01,,---,0.03,VWS V14.01,2013-01-29 11:37:00,
2013-01-29 05:42:00,32.0,31.2,29.60,NW,314,1.0,2.0,97,0.01,,---,0.03,VWS V14.01,2013-01-29 11:42:00,
2013-01-29 05:47:00,31.9,31.1,29.57,NW,318,0.0,2.0,97,0.01,,---,0.03,VWS V14.01,2013-01-29 11:47:00,
2013-01-29 05:52:00,31.9,31.1,29.58,WNW,289,1.0,2.0,97,0.01,,---,0.03,VWS V14.01,2013-01-29 11:52:00,
2013-01-29 05:57:00,31.9,31.1,29.60,WNW,284,1.0,1.0,97,0.01,,---,0.03,VWS V14.01,2013-01-29 11:57:00,
2013-01-29 06:02:00,31.9,31.1,29.60,NW,318,0.0,1.0,97,0.01,,---,0.03,VWS V14.01,2013-01-29 12:02:00,
2013-01-29 06:07:00,31.9,31.1,29.60,WNW,292,1.0,1.0,97,0.01,,---,0.03,VWS V14.01,2013-01-29 12:07:00,
2013-01-29 06:12:00,31.9,31.1,29.60,WNW,292,0.0,0.0,97,0.01,,---,0.03,VWS V14.01,2013-01-29 12:12:00,
2013-01-29 06:17:00,31.9,31.1,29.60,WNW,290,0.0,1.0,97,0.01,,---,0.03,VWS V14.01,2013-01-29 12:17:00,
2013-01-29 06:22:00,31.8,31.0,29.60,NW,318,0.0,2.0,97,0.01,,---,0.03,VWS V14.01,2013-01-29 12:22:00,
2013-01-29 06:27:00,31.8,31.0,29.60,NW,311,0.0,0.0,97,0.01,,---,0.03,VWS V14.01,2013-01-29 12:27:00,
2013-01-29 06:32:00,31.9,31.1,29.59,NW,311,0.0,1.0,97,0.01,,---,0.03,VWS V14.01,2013-01-29 12:32:00,
2013-01-29 06:37:00,31.9,31.1,29.60,NW,311,0.0,1.0,97,0.01,,---,0.03,VWS V14.01,2013-01-29 12:37:00,
2013-01-29 06:42:00,31.9,31.1,29.60,NW,309,0.0,0.0,97,0.00,,---,0.03,VWS V14.01,2013-01-29 12:42:00,
2013-01-29 06:47:00,31.9,31.1,29.60,NW,309,0.0,1.0,97,0.00,,---,0.03,VWS V14.01,2013-01-29 12:47:00,
2013-01-29 06:52:00,31.8,31.0,29.59,NW,308,0.0,1.0,97,0.00,,---,0.03,VWS V14.01,2013-01-29 12:52:00,
2013-01-29 06:57:00,31.9,31.1,29.61,WNW,284,0.0,1.0,97,0.00,,---,0.03,VWS V14.01,2013-01-29 12:57:00,
2013-01-29 07:02:00,31.8,31.0,29.61,West,278,0.0,2.0,97,0.00,,---,0.03,VWS V14.01,2013-01-29 13:02:00,
2013-01-29 07:07:00,31.9,31.1,29.62,West,278,0.0,2.0,97,0.00,,---,0.03,VWS V14.01,2013-01-29 13:07:00,
2013-01-29 07:12:00,31.9,31.1,29.62,West,278,0.0,0.0,97,0.00,,---,0.03,VWS V14.01,2013-01-29 13:12:00,
2013-01-29 07:17:00,31.9,31.1,29.62,WNW,294,1.0,1.0,97,0.00,,---,0.03,VWS V14.01,2013-01-29 13:17:00,
2013-01-29 07:22:00,31.9,31.1,29.61,WNW,294,0.0,2.0,97,0.00,,---,0.03,VWS V14.01,2013-01-29 13:22:00,
2013-01-29 07:27:00,31.8,31.0,29.60,WNW,287,0.0,0.0,97,0.00,,---,0.03,VWS V14.01,2013-01-29 13:27:00,
2013-01-29 07:32:00,31.9,31.1,29.61,WNW,288,0.0,1.0,97,0.00,,---,0.03,VWS V14.01,2013-01-29 13:32:00,
2013-01-29 07:37:00,31.9,31.1,29.62,WNW,287,0.0,1.0,97,0.00,,---,0.03,VWS V14.01,2013-01-29 13:37:00,
2013-01-29 07:42:00,31.9,31.1,29.61,WNW,286,0.0,0.0,97,0.00,,---,0.03,VWS V14.01,2013-01-29 13:42:00,
2013-01-29 07:47:00,31.9,31.1,29.62,WNW,286,0.0,0.0,97,0.00,,---,0.03,VWS V14.01,2013-01-29 13:47:00,
2013-01-29 07:52:00,32.0,31.2,29.62,WNW,286,0.0,0.0,97,0.00,,---,0.03,VWS V14.01,2013-01-29 13:52:00,
2013-01-29 07:57:00,32.0,31.2,29.63,WNW,284,1.0,1.0,97,0.00,,---,0.03,VWS V14.01,2013-01-29 13:57:00,
2013-01-29 08:02:00,32.0,31.2,29.63,WNW,283,1.0,3.0,97,0.00,,---,0.03,VWS V14.01,2013-01-29 14:02:00,
2013-01-29 08:07:00,32.1,31.4,29.64,West,279,1.0,3.0,97,0.00,,---,0.03,VWS V14.01,2013-01-29 14:07:00,
2013-01-29 08:12:00,32.1,31.4,29.64,WNW,290,1.0,2.0,97,0.00,,---,0.03,VWS V14.01,2013-01-29 14:12:00,
2013-01-29 08:17:00,32.1,31.4,29.65,WNW,282,2.0,3.0,97,0.00,,---,0.03,VWS V14.01,2013-01-29 14:17:00,
2013-01-29 08:22:00,32.1,31.4,29.65,West,271,2.0,3.0,97,0.00,,---,0.03,VWS V14.01,2013-01-29 14:22:00,
2013-01-29 08:27:00,32.2,31.5,29.65,WNW,296,1.0,2.0,97,0.00,,---,0.03,VWS V14.01,2013-01-29 14:27:00,
2013-01-29 08:32:00,32.2,31.5,29.64,WSW,257,0.0,2.0,97,0.00,,---,0.03,VWS V14.01,2013-01-29 14:32:00,
2013-01-29 08:37:00,32.3,31.5,29.64,West,264,2.0,4.0,97,0.00,,---,0.03,VWS V14.01,2013-01-29 14:37:00,
2013-01-29 08:42:00,32.3,31.5,29.63,NW,309,1.0,1.0,97,0.00,,---,0.03,VWS V14.01,2013-01-29 14:42:00,
2013-01-29 08:47:00,32.3,31.5,29.63,WNW,288,2.0,5.0,97,0.00,,---,0.03,VWS V14.01,2013-01-29 14:47:00,
2013-01-29 08:52:00,32.3,31.5,29.64,WNW,284,1.0,7.0,97,0.00,,---,0.03,VWS V14.01,2013-01-29 14:52:00,
2013-01-29 08:57:00,32.3,31.5,29.65,WNW,288,2.0,2.0,97,0.00,,---,0.03,VWS V14.01,2013-01-29 14:57:00,
2013-01-29 09:02:00,32.3,31.5,29.66,West,281,1.0,5.0,97,0.00,,---,0.03,VWS V14.01,2013-01-29 15:02:00,
2013-01-29 09:07:00,32.4,31.6,29.66,SW,223,3.0,7.0,97,0.00,,---,0.03,VWS V14.01,2013-01-29 15:07:00,
2013-01-29 09:12:00,32.4,31.6,29.66,WNW,290,0.0,1.0,97,0.00,,---,0.03,VWS V14.01,2013-01-29 15:12:00,
2013-01-29 09:17:00,32.5,31.7,29.67,West,277,1.0,4.0,97,0.00,,---,0.03,VWS V14.01,2013-01-29 15:17:00,
2013-01-29 09:22:00,32.5,31.7,29.66,West,261,4.0,5.0,97,0.00,,---,0.03,VWS V14.01,2013-01-29 15:22:00,
2013-01-29 09:27:00,32.7,31.9,29.65,WNW,296,2.0,3.0,97,0.00,,---,0.03,VWS V14.01,2013-01-29 15:27:00,
2013-01-29 09:32:00,32.8,32.0,29.64,WNW,289,2.0,3.0,97,0.00,,---,0.03,VWS V14.01,2013-01-29 15:32:00,
2013-01-29 09:37:00,32.7,31.9,29.65,WNW,293,1.0,4.0,97,0.00,,---,0.03,VWS V14.01,2013-01-29 15:37:00,
2013-01-29 09:42:00,32.7,31.9,29.65,WNW,282,1.0,1.0,97,0.00,,---,0.03,VWS V14.01,2013-01-29 15:42:00,
2013-01-29 09:47:00,32.7,31.7,29.65,WNW,291,1.0,5.0,96,0.00,,---,0.03,VWS V14.01,2013-01-29 15:47:00,
2013-01-29 09:52:00,32.8,31.8,29.64,WNW,303,4.0,5.0,96,0.00,,---,0.03,VWS V14.01,2013-01-29 15:52:00,
2013-01-29 09:57:00,32.9,31.9,29.65,NW,326,2.0,4.0,96,0.00,,---,0.03,VWS V14.01,2013-01-29 15:57:00,
2013-01-29 10:02:00,33.0,32.0,29.66,West,280,2.0,4.0,96,0.00,,---,0.03,VWS V14.01,2013-01-29 16:02:00,
2013-01-29 10:07:00,33.2,32.2,29.65,NW,313,1.0,5.0,96,0.00,,---,0.03,VWS V14.01,2013-01-29 16:07:00,
2013-01-29 10:12:00,33.3,32.3,29.66,WSW,237,2.0,2.0,96,0.00,,---,0.03,VWS V14.01,2013-01-29 16:12:00,
2013-01-29 10:17:00,33.4,32.4,29.67,WNW,284,3.0,4.0,96,0.00,,---,0.03,VWS V14.01,2013-01-29 16:17:00,
2013-01-29 10:22:00,33.5,32.5,29.67,WNW,284,3.0,6.0,96,0.00,,---,0.03,VWS V14.01,2013-01-29 16:22:00,
2013-01-29 10:27:00,33.6,32.6,29.68,North,360,8.0,9.0,96,0.01,,---,0.04,VWS V14.01,2013-01-29 16:27:00,
2013-01-29 10:32:00,33.6,32.3,29.68,NW,306,3.0,9.0,95,0.01,,---,0.04,VWS V14.01,2013-01-29 16:32:00,
2013-01-29 10:37:00,33.7,32.4,29.69,NNW,338,2.0,9.0,95,0.01,,---,0.04,VWS V14.01,2013-01-29 16:37:00,
2013-01-29 10:42:00,33.8,32.5,29.68,NW,306,1.0,2.0,95,0.01,,---,0.04,VWS V14.01,2013-01-29 16:42:00,
2013-01-29 10:47:00,34.0,32.7,29.68,WNW,292,1.0,4.0,95,0.01,,---,0.04,VWS V14.01,2013-01-29 16:47:00,
2013-01-29 10:52:00,34.1,32.8,29.68,West,280,3.0,4.0,95,0.01,,---,0.04,VWS V14.01,2013-01-29 16:52:00,
2013-01-29 10:57:00,34.4,32.9,29.68,WNW,294,4.0,5.0,94,0.01,,---,0.04,VWS V14.01,2013-01-29 16:57:00,
2013-01-29 11:02:00,34.4,32.9,29.68,NW,309,2.0,6.0,94,0.01,,---,0.04,VWS V14.01,2013-01-29 17:02:00,
2013-01-29 11:07:00,34.5,32.7,29.68,North,360,2.0,6.0,93,0.01,,---,0.04,VWS V14.01,2013-01-29 17:07:00,
2013-01-29 11:12:00,34.6,32.5,29.69,West,277,2.0,4.0,92,0.02,,---,0.05,VWS V14.01,2013-01-29 17:12:00,
2013-01-29 11:17:00,34.7,32.6,29.69,NNW,328,2.0,7.0,92,0.02,,---,0.05,VWS V14.01,2013-01-29 17:17:00,
2013-01-29 11:22:00,34.9,32.5,29.70,WNW,300,3.0,7.0,91,0.02,,---,0.05,VWS V14.01,2013-01-29 17:22:00,
2013-01-29 11:27:00,34.9,32.3,29.70,West,281,1.0,2.0,90,0.01,,---,0.05,VWS V14.01,2013-01-29 17:27:00,
2013-01-29 11:32:00,35.0,32.4,29.71,WSW,238,2.0,6.0,90,0.01,,---,0.05,VWS V14.01,2013-01-29 17:32:00,
2013-01-29 11:37:00,35.1,32.5,29.72,WNW,293,3.0,7.0,90,0.02,,---,0.06,VWS V14.01,2013-01-29 17:37:00,
2013-01-29 11:42:00,35.2,32.3,29.71,NW,317,1.0,2.0,89,0.02,,---,0.06,VWS V14.01,2013-01-29 17:42:00,
2013-01-29 11:47:00,35.3,32.4,29.71,WNW,286,1.0,3.0,89,0.02,,---,0.06,VWS V14.01,2013-01-29 17:47:00,
2013-01-29 11:52:00,35.5,32.3,29.71,NW,326,1.0,4.0,88,0.02,,---,0.06,VWS V14.01,2013-01-29 17:52:00,
2013-01-29 11:57:00,35.6,32.4,29.71,NNW,329,1.0,2.0,88,0.03,,---,0.07,VWS V14.01,2013-01-29 17:57:00,
2013-01-29 12:02:00,35.7,32.5,29.71,NW,311,0.0,3.0,88,0.03,,---,0.07,VWS V14.01,2013-01-29 18:02:00,
2013-01-29 12:07:00,35.9,32.4,29.71,WNW,300,1.0,4.0,87,0.03,,---,0.07,VWS V14.01,2013-01-29 18:07:00,
2013-01-29 12:12:00,35.9,32.4,29.70,WSW,251,2.0,2.0,87,0.02,,---,0.07,VWS V14.01,2013-01-29 18:12:00,
2013-01-29 12:17:00,36.0,32.5,29.71,North,354,1.0,5.0,87,0.03,,---,0.08,VWS V14.01,2013-01-29 18:17:00,
2013-01-29 12:22:00,36.3,32.8,29.71,WNW,293,2.0,5.0,87,0.03,,---,0.08,VWS V14.01,2013-01-29 18:22:00,
2013-01-29 12:27:00,36.3,32.2,29.71,WNW,284,1.0,1.0,85,0.03,,---,0.08,VWS V14.01,2013-01-29 18:27:00,
2013-01-29 12:32:00,36.4,32.3,29.70,WNW,296,1.0,3.0,85,0.04,,---,0.09,VWS V14.01,2013-01-29 18:32:00,
2013-01-29 12:37:00,36.2,32.1,29.68,NW,320,1.0,6.0,85,0.04,,---,0.09,VWS V14.01,2013-01-29 18:37:00,
2013-01-29 12:42:00,36.2,32.1,29.69,NW,320,1.0,1.0,85,0.03,,---,0.09,VWS V14.01,2013-01-29 18:42:00,
2013-01-29 12:47:00,36.3,32.2,29.69,NW,308,1.0,3.0,85,0.04,,---,0.10,VWS V14.01,2013-01-29 18:47:00,
2013-01-29 12:52:00,36.2,32.1,29.69,WNW,299,1.0,4.0,85,0.04,,---,0.10,VWS V14.01,2013-01-29 18:52:00,
2013-01-29 12:57:00,36.3,32.2,29.69,West,281,1.0,1.0,85,0.03,,---,0.10,VWS V14.01,2013-01-29 18:57:00,
2013-01-29 13:02:00,36.2,32.1,29.69,NNW,342,2.0,5.0,85,0.04,,---,0.11,VWS V14.01,2013-01-29 19:02:00,
2013-01-29 13:07:00,36.0,31.9,29.70,WNW,294,2.0,5.0,85,0.04,,---,0.11,VWS V14.01,2013-01-29 19:07:00,
2013-01-29 13:12:00,36.0,31.9,29.70,WNW,287,1.0,2.0,85,0.04,,---,0.11,VWS V14.01,2013-01-29 19:12:00,
2013-01-29 13:17:00,36.2,32.1,29.69,NW,307,3.0,5.0,85,0.04,,---,0.11,VWS V14.01,2013-01-29 19:17:00,
2013-01-29 13:22:00,36.3,32.2,29.69,NW,316,0.0,6.0,85,0.05,,---,0.12,VWS V14.01,2013-01-29 19:22:00,
2013-01-29 13:27:00,36.6,32.5,29.68,NW,309,3.0,3.0,85,0.04,,---,0.12,VWS V14.01,2013-01-29 19:27:00,
2013-01-29 13:32:00,36.7,32.3,29.68,WNW,284,3.0,4.0,84,0.04,,---,0.12,VWS V14.01,2013-01-29 19:32:00,
2013-01-29 13:37:00,36.6,32.2,29.68,North,9,3.0,4.0,84,0.05,,---,0.13,VWS V14.01,2013-01-29 19:37:00,
2013-01-29 13:42:00,36.5,32.1,29.68,NW,311,1.0,4.0,84,0.05,,---,0.13,VWS V14.01,2013-01-29 19:42:00,
2013-01-29 13:47:00,36.4,32.0,29.68,NW,311,0.0,5.0,84,0.04,,---,0.13,VWS V14.01,2013-01-29 19:47:00,
2013-01-29 13:52:00,36.5,32.1,29.67,WNW,289,2.0,5.0,84,0.05,,---,0.14,VWS V14.01,2013-01-29 19:52:00,
2013-01-29 13:57:00,36.4,32.0,29.67,West,262,2.0,5.0,84,0.05,,---,0.14,VWS V14.01,2013-01-29 19:57:00,
2013-01-29 14:02:00,36.5,32.1,29.68,NNW,345,2.0,4.0,84,0.04,,---,0.14,VWS V14.01,2013-01-29 20:02:00,
2013-01-29 14:07:00,36.4,32.0,29.67,NW,317,3.0,4.0,84,0.04,,---,0.14,VWS V14.01,2013-01-29 20:07:00,
2013-01-29 14:12:00,36.4,32.0,29.67,WNW,294,1.0,1.0,84,0.04,,---,0.15,VWS V14.01,2013-01-29 20:12:00,
2013-01-29 14:17:00,36.5,32.4,29.67,NNW,335,0.0,3.0,85,0.04,,---,0.15,VWS V14.01,2013-01-29 20:17:00,
2013-01-29 14:22:00,36.4,32.0,29.68,North,359,1.0,5.0,84,0.04,,---,0.15,VWS V14.01,2013-01-29 20:22:00,
2013-01-29 14:27:00,36.1,31.7,29.67,NW,305,2.0,2.0,84,0.03,,---,0.15,VWS V14.01,2013-01-29 20:27:00,
2013-01-29 14:32:00,36.1,31.7,29.67,WNW,301,2.0,5.0,84,0.04,,---,0.16,VWS V14.01,2013-01-29 20:32:00,
2013-01-29 14:37:00,36.0,31.6,29.68,West,280,1.0,8.0,84,0.04,,---,0.16,VWS V14.01,2013-01-29 20:37:00,
2013-01-29 14:42:00,36.0,31.6,29.67,WNW,303,0.0,2.0,84,0.03,,---,0.16,VWS V14.01,2013-01-29 20:42:00,
2013-01-29 14:47:00,35.9,31.5,29.68,NW,305,1.0,5.0,84,0.03,,---,0.16,VWS V14.01,2013-01-29 20:47:00,
2013-01-29 14:52:00,35.9,31.5,29.67,West,281,1.0,5.0,84,0.03,,---,0.16,VWS V14.01,2013-01-29 20:52:00,
2013-01-29 14:57:00,36.0,31.6,29.68,West,272,2.0,4.0,84,0.03,,---,0.17,VWS V14.01,2013-01-29 20:57:00,
2013-01-29 15:02:00,35.9,31.2,29.69,NW,321,1.0,5.0,83,0.03,,---,0.17,VWS V14.01,2013-01-29 21:02:00,
2013-01-29 15:07:00,36.0,31.4,29.69,North,9,3.0,5.0,83,0.03,,---,0.17,VWS V14.01,2013-01-29 21:07:00,
2013-01-29 15:12:00,36.0,31.4,29.68,West,273,2.0,2.0,83,0.02,,---,0.17,VWS V14.01,2013-01-29 21:12:00,
2013-01-29 15:17:00,36.0,31.0,29.69,WNW,291,2.0,4.0,82,0.02,,---,0.17,VWS V14.01,2013-01-29 21:17:00,
2013-01-29 15:22:00,36.0,31.0,29.69,NNW,344,3.0,5.0,82,0.02,,---,0.17,VWS V14.01,2013-01-29 21:22:00,
2013-01-29 15:27:00,35.9,31.0,29.70,WNW,296,1.0,2.0,82,0.02,,---,0.17,VWS V14.01,2013-01-29 21:27:00,
2013-01-29 15:32:00,35.9,31.0,29.70,NNW,329,2.0,6.0,82,0.03,,---,0.18,VWS V14.01,2013-01-29 21:32:00,
2013-01-29 15:37:00,35.7,30.8,29.71,NW,311,1.0,6.0,82,0.03,,---,0.18,VWS V14.01,2013-01-29 21:37:00,
2013-01-29 15:42:00,35.7,30.8,29.70,West,277,4.0,4.0,82,0.02,,---,0.18,VWS V14.01,2013-01-29 21:42:00,
2013-01-29 15:47:00,35.6,30.7,29.71,WNW,301,1.0,5.0,82,0.02,,---,0.18,VWS V14.01,2013-01-29 21:47:00,
2013-01-29 15:52:00,35.6,31.0,29.72,West,281,1.0,5.0,83,0.02,,---,0.18,VWS V14.01,2013-01-29 21:52:00,
2013-01-29 15:57:00,35.5,30.6,29.71,NW,325,1.0,2.0,82,0.01,,---,0.18,VWS V14.01,2013-01-29 21:57:00,
2013-01-29 16:02:00,35.3,30.7,29.70,NW,306,1.0,5.0,83,0.01,,---,0.18,VWS V14.01,2013-01-29 22:02:00,
2013-01-29 16:07:00,35.1,30.5,29.70,NW,312,2.0,6.0,83,0.01,,---,0.18,VWS V14.01,2013-01-29 22:07:00,
2013-01-29 16:12:00,34.9,30.3,29.70,NNW,327,2.0,3.0,83,0.01,,---,0.18,VWS V14.01,2013-01-29 22:12:00,
2013-01-29 16:17:00,34.9,30.3,29.69,WNW,296,3.0,5.0,83,0.02,,---,0.19,VWS V14.01,2013-01-29 22:17:00,
2013-01-29 16:22:00,34.8,30.5,29.70,NW,326,2.0,5.0,84,0.02,,---,0.19,VWS V14.01,2013-01-29 22:22:00,
2013-01-29 16:27:00,34.8,30.2,29.70,NNW,332,2.0,2.0,83,0.02,,---,0.19,VWS V14.01,2013-01-29 22:27:00,
2013-01-29 16:32:00,34.7,30.1,29.71,WNW,287,2.0,4.0,83,0.02,,---,0.19,VWS V14.01,2013-01-29 22:32:00,
2013-01-29 16:37:00,34.7,30.4,29.70,West,279,3.0,5.0,84,0.02,,---,0.19,VWS V14.01,2013-01-29 22:37:00,
2013-01-29 16:42:00,34.6,30.0,29.71,WNW,287,2.0,2.0,83,0.01,,---,0.19,VWS V14.01,2013-01-29 22:42:00,
2013-01-29 16:47:00,34.5,29.9,29.71,WNW,293,1.0,7.0,83,0.01,,---,0.19,VWS V14.01,2013-01-29 22:47:00,
2013-01-29 16:52:00,34.4,29.8,29.71,North,352,3.0,7.0,83,0.01,,---,0.19,VWS V14.01,2013-01-29 22:52:00,
2013-01-29 16:57:00,34.4,29.8,29.70,NW,314,2.0,4.0,83,0.01,,---,0.19,VWS V14.01,2013-01-29 22:57:00,
2013-01-29 17:02:00,34.3,29.7,29.69,NNW,332,2.0,6.0,83,0.01,,---,0.19,VWS V14.01,2013-01-29 23:02:00,
2013-01-29 17:07:00,34.3,29.7,29.70,NW,306,0.0,6.0,83,0.01,,---,0.19,VWS V14.01,2013-01-29 23:07:00,
2013-01-29 17:12:00,34.2,29.6,29.71,NNW,332,1.0,2.0,83,0.01,,---,0.19,VWS V14.01,2013-01-29 23:12:00,
2013-01-29 17:17:00,34.1,29.5,29.71,WNW,298,1.0,5.0,83,0.01,,---,0.19,VWS V14.01,2013-01-29 23:17:00,
2013-01-29 17:22:00,34.1,29.8,29.71,NNW,335,3.0,6.0,84,0.01,,---,0.19,VWS V14.01,2013-01-29 23:22:00,
2013-01-29 17:27:00,34.0,29.7,29.72,NW,306,1.0,1.0,84,0.00,,---,0.19,VWS V14.01,2013-01-29 23:27:00,
2013-01-29 17:32:00,33.9,29.6,29.72,NW,315,1.0,3.0,84,0.00,,---,0.19,VWS V14.01,2013-01-29 23:32:00,
2013-01-29 17:37:00,33.8,29.5,29.71,NW,304,2.0,5.0,84,0.00,,---,0.19,VWS V14.01,2013-01-29 23:37:00,
2013-01-29 17:42:00,33.8,29.5,29.72,WNW,284,1.0,2.0,84,0.00,,---,0.19,VWS V14.01,2013-01-29 23:42:00,
2013-01-29 17:47:00,33.7,29.1,29.72,NNE,12,5.0,6.0,83,0.00,,---,0.19,VWS V14.01,2013-01-29 23:47:00,
2013-01-29 17:52:00,33.7,29.1,29.74,NW,307,1.0,6.0,83,0.00,,---,0.19,VWS V14.01,2013-01-29 23:52:00,
2013-01-29 17:57:00,33.6,29.0,29.73,North,352,2.0,3.0,83,0.00,,---,0.19,VWS V14.01,2013-01-29 23:57:00,
2013-01-29 18:02:00,33.6,29.0,29.73,North,10,2.0,4.0,83,0.00,,---,0.19,VWS V14.01,2013-01-30 00:02:00,
2013-01-29 18:07:00,33.5,28.9,29.73,NW,306,2.0,5.0,83,0.00,,---,0.19,VWS V14.01,2013-01-30 00:07:00,
2013-01-29 18:12:00,33.5,28.9,29.74,NW,305,2.0,2.0,83,0.00,,---,0.19,VWS V14.01,2013-01-30 00:12:00,
2013-01-29 18:17:00,33.4,28.8,29.75,WNW,300,2.0,5.0,83,0.00,,---,0.19,VWS V14.01,2013-01-30 00:17:00,
2013-01-29 18:22:00,33.4,28.8,29.75,WNW,287,3.0,6.0,83,0.00,,---,0.19,VWS V14.01,2013-01-30 00:22:00,
2013-01-29 18:27:00,33.3,28.7,29.75,NW,309,3.0,3.0,83,0.00,,---,0.19,VWS V14.01,2013-01-30 00:27:00,
2013-01-29 18:32:00,33.3,28.7,29.75,NW,320,3.0,4.0,83,0.00,,---,0.19,VWS V14.01,2013-01-30 00:32:00,
2013-01-29 18:37:00,33.3,28.4,29.74,NW,313,2.0,6.0,82,0.00,,---,0.19,VWS V14.01,2013-01-30 00:37:00,
2013-01-29 18:42:00,33.2,28.6,29.75,NW,321,0.0,1.0,83,0.00,,---,0.19,VWS V14.01,2013-01-30 00:42:00,
2013-01-29 18:47:00,33.1,28.5,29.75,West,275,2.0,6.0,83,0.00,,---,0.19,VWS V14.01,2013-01-30 00:47:00,
2013-01-29 18:52:00,33.0,28.4,29.76,WNW,299,3.0,6.0,83,0.00,,---,0.19,VWS V14.01,2013-01-30 00:52:00,
2013-01-29 18:57:00,32.9,28.3,29.74,North,352,2.0,2.0,83,0.00,,---,0.19,VWS V14.01,2013-01-30 00:57:00,
2013-01-29 19:02:00,32.7,27.8,29.72,NNW,330,2.0,5.0,82,0.00,,---,0.19,VWS V14.01,2013-01-30 01:02:00,
2013-01-29 19:07:00,32.4,27.5,29.73,NNW,332,3.0,6.0,82,0.00,,---,0.19,VWS V14.01,2013-01-30 01:07:00,
2013-01-29 19:12:00,32.0,26.8,29.71,NNW,348,2.0,3.0,81,0.00,,---,0.19,VWS V14.01,2013-01-30 01:12:00,
2013-01-29 19:17:00,31.6,26.5,29.70,North,351,0.0,5.0,81,0.00,,---,0.19,VWS V14.01,2013-01-30 01:17:00,
2013-01-29 19:22:00,31.3,26.2,29.72,NW,318,3.0,7.0,81,0.00,,---,0.19,VWS V14.01,2013-01-30 01:22:00,
2013-01-29 19:27:00,31.0,25.9,29.73,NW,314,3.0,4.0,81,0.00,,---,0.19,VWS V14.01,2013-01-30 01:27:00,
2013-01-29 19:32:00,30.8,26.0,29.74,NNW,339,1.0,7.0,82,0.00,,---,0.19,VWS V14.01,2013-01-30 01:32:00,
2013-01-29 19:37:00,30.6,25.8,29.75,NNW,327,2.0,7.0,82,0.00,,---,0.19,VWS V14.01,2013-01-30 01:37:00,
2013-01-29 19:42:00,30.5,25.7,29.76,NNW,332,1.0,3.0,82,0.00,,---,0.19,VWS V14.01,2013-01-30 01:42:00,
2013-01-29 19:47:00,30.3,25.5,29.76,NNW,339,5.0,7.0,82,0.00,,---,0.19,VWS V14.01,2013-01-30 01:47:00,
2013-01-29 19:52:00,30.1,25.3,29.76,NW,306,3.0,10.0,82,0.00,,---,0.19,VWS V14.01,2013-01-30 01:52:00,
2013-01-29 19:57:00,30.0,25.2,29.76,NNE,32,3.0,4.0,82,0.00,,---,0.19,VWS V14.01,2013-01-30 01:57:00,
2013-01-29 20:02:00,29.8,25.0,29.77,NNW,327,2.0,7.0,82,0.00,,---,0.19,VWS V14.01,2013-01-30 02:02:00,
2013-01-29 20:07:00,29.8,25.0,29.77,North,355,4.0,7.0,82,0.00,,---,0.19,VWS V14.01,2013-01-30 02:07:00,
2013-01-29 20:12:00,29.7,24.9,29.77,WNW,296,3.0,4.0,82,0.00,,---,0.19,VWS V14.01,2013-01-30 02:12:00,
2013-01-29 20:17:00,29.7,24.6,29.78,NNW,333,1.0,7.0,81,0.00,,---,0.19,VWS V14.01,2013-01-30 02:17:00,
2013-01-29 20:22:00,29.7,24.9,29.77,NNW,339,2.0,7.0,82,0.00,,---,0.19,VWS V14.01,2013-01-30 02:22:00,
2013-01-29 20:27:00,29.7,24.9,29.77,North,349,1.0,1.0,82,0.00,,---,0.19,VWS V14.01,2013-01-30 02:27:00,
2013-01-29 20:32:00,29.7,24.9,29.78,NW,320,1.0,4.0,82,0.00,,---,0.19,VWS V14.01,2013-01-30 02:32:00,
2013-01-29 20:37:00,29.6,24.8,29.78,NNE,29,2.0,6.0,82,0.00,,---,0.19,VWS V14.01,2013-01-30 02:37:00,
2013-01-29 20:42:00,29.6,24.8,29.78,NNW,332,2.0,4.0,82,0.00,,---,0.19,VWS V14.01,2013-01-30 02:42:00,
2013-01-29 20:47:00,29.7,24.9,29.77,NE,48,4.0,7.0,82,0.00,,---,0.19,VWS V14.01,2013-01-30 02:47:00,
2013-01-29 20:52:00,29.6,24.8,29.76,NNW,346,1.0,7.0,82,0.00,,---,0.19,VWS V14.01,2013-01-30 02:52:00,
2013-01-29 20:57:00,29.6,24.5,29.76,North,356,1.0,2.0,81,0.00,,---,0.19,VWS V14.01,2013-01-30 02:57:00,
2013-01-29 21:02:00,29.6,24.5,29.75,NNE,22,2.0,5.0,81,0.00,,---,0.19,VWS V14.01,2013-01-30 03:02:00,
2013-01-29 21:07:00,29.6,24.5,29.75,WNW,295,3.0,6.0,81,0.00,,---,0.19,VWS V14.01,2013-01-30 03:07:00,
2013-01-29 21:12:00,29.5,24.4,29.75,WNW,282,7.0,7.0,81,0.00,,---,0.19,VWS V14.01,2013-01-30 03:12:00,
2013-01-29 21:17:00,29.5,24.4,29.75,NNW,327,2.0,11.0,81,0.00,,---,0.19,VWS V14.01,2013-01-30 03:17:00,
2013-01-29 21:22:00,29.5,24.4,29.74,NW,315,2.0,11.0,81,0.00,,---,0.19,VWS V14.01,2013-01-30 03:22:00,
2013-01-29 21:27:00,29.4,24.3,29.74,NNE,20,2.0,2.0,81,0.00,,---,0.19,VWS V14.01,2013-01-30 03:27:00,
2013-01-29 21:32:00,29.4,24.3,29.74,NNW,348,4.0,6.0,81,0.00,,---,0.19,VWS V14.01,2013-01-30 03:32:00,
2013-01-29 21:37:00,29.4,24.6,29.74,North,9,1.0,6.0,82,0.00,,---,0.19,VWS V14.01,2013-01-30 03:37:00,
2013-01-29 21:42:00,29.4,24.6,29.75,NW,306,4.0,8.0,82,0.00,,---,0.19,VWS V14.01,2013-01-30 03:42:00,
2013-01-29 21:47:00,29.4,24.3,29.77,NNW,332,2.0,6.0,81,0.00,,---,0.19,VWS V14.01,2013-01-30 03:47:00,
2013-01-29 21:52:00,29.4,24.3,29.77,North,353,3.0,6.0,81,0.00,,---,0.19,VWS V14.01,2013-01-30 03:52:00,
2013-01-29 21:57:00,29.5,24.4,29.78,NNW,332,1.0,6.0,81,0.00,,---,0.19,VWS V14.01,2013-01-30 03:57:00,
2013-01-29 22:02:00,29.4,24.3,29.79,NNE,32,3.0,7.0,81,0.00,,---,0.19,VWS V14.01,2013-01-30 04:02:00,
2013-01-29 22:07:00,29.5,24.4,29.79,NW,320,1.0,7.0,81,0.00,,---,0.19,VWS V14.01,2013-01-30 04:07:00,
2013-01-29 22:12:00,29.5,24.4,29.79,NW,322,3.0,7.0,81,0.00,,---,0.19,VWS V14.01,2013-01-30 04:12:00,
2013-01-29 22:17:00,29.5,24.4,29.79,North,356,2.0,6.0,81,0.00,,---,0.19,VWS V14.01,2013-01-30 04:17:00,
2013-01-29 22:22:00,29.5,24.4,29.80,NNW,345,0.0,6.0,81,0.00,,---,0.19,VWS V14.01,2013-01-30 04:22:00,
2013-01-29 22:27:00,29.5,24.4,29.79,NNW,329,1.0,6.0,81,0.00,,---,0.19,VWS V14.01,2013-01-30 04:27:00,
2013-01-29 22:32:00,29.5,24.4,29.78,North,7,1.0,4.0,81,0.00,,---,0.19,VWS V14.01,2013-01-30 04:32:00,
2013-01-29 22:37:00,29.5,24.7,29.79,NNW,329,0.0,4.0,82,0.00,,---,0.19,VWS V14.01,2013-01-30 04:37:00,
2013-01-29 22:42:00,29.5,24.7,29.79,WNW,285,3.0,4.0,82,0.00,,---,0.19,VWS V14.01,2013-01-30 04:42:00,
2013-01-29 22:47:00,29.4,24.6,29.77,NW,322,0.0,6.0,82,0.00,,---,0.19,VWS V14.01,2013-01-30 04:47:00,
2013-01-29 22:52:00,29.3,24.5,29.77,North,1,2.0,10.0,82,0.00,,---,0.19,VWS V14.01,2013-01-30 04:52:00,
2013-01-29 22:57:00,29.2,24.4,29.77,WNW,299,3.0,10.0,82,0.00,,---,0.19,VWS V14.01,2013-01-30 04:57:00,
2013-01-29 23:00:00,29.2,24.4,29.78,WNW,289,3.0,6.0,82,0.00,,---,0.19,VWS V14.01,2013-01-30 05:00:00,
2013-01-29 23:03:00,29.1,24.3,29.77,NW,325,2.0,8.0,82,0.00,,---,0.19,VWS V14.01,2013-01-30 05:03:00,
2013-01-29 23:08:00,29.0,24.2,29.78,WSW,248,6.0,8.0,82,0.00,,---,0.19,VWS V14.01,2013-01-30 05:08:00,
2013-01-29 23:13:00,29.0,24.2,29.78,West,272,3.0,3.0,82,0.00,,---,0.19,VWS V14.01,2013-01-30 05:13:00,
2013-01-29 23:18:00,28.9,24.1,29.78,NNW,344,1.0,7.0,82,0.00,,---,0.19,VWS V14.01,2013-01-30 05:18:00,
2013-01-29 23:23:00,28.9,24.1,29.77,North,352,1.0,7.0,82,0.00,,---,0.19,VWS V14.01,2013-01-30 05:23:00,
2013-01-29 23:28:00,28.8,24.0,29.76,WNW,296,1.0,3.0,82,0.00,,---,0.19,VWS V14.01,2013-01-30 05:28:00,
2013-01-29 23:33:00,28.6,23.5,29.76,NNE,12,5.0,9.0,81,0.00,,---,0.19,VWS V14.01,2013-01-30 05:33:00,
2013-01-29 23:38:00,28.5,23.4,29.77,NNW,345,3.0,10.0,81,0.00,,---,0.19,VWS V14.01,2013-01-30 05:38:00,
2013-01-29 23:43:00,28.4,23.3,29.77,WNW,291,2.0,3.0,81,0.00,,---,0.19,VWS V14.01,2013-01-30 05:43:00,
2013-01-29 23:48:00,28.3,23.2,29.77,North,360,1.0,7.0,81,0.00,,---,0.19,VWS V14.01,2013-01-30 05:48:00,
2013-01-29 23:53:00,28.3,23.2,29.79,NNE,23,2.0,7.0,81,0.00,,---,0.19,VWS V14.01,2013-01-30 05:53:00,
2013-01-29 23:58:00,28.3,23.2,29.79,NW,313,1.0,2.0,81,0.00,,---,0.00,VWS V14.01,2013-01-30 05:58:00,